Time;durP1;ratioP1;P1;durP2;ratioP2;P2;SDS_P1;SDS_P2;PMS_P1;PMS_P2;Temp;Humidity;BMP_temperature;BMP_pressure;BME280_temperature;BME280_humidity;BME280_pressure;Samples;Min_cycle;Max_cycle;Signal;HPM_P1;HPM_P2
2022/03/11 04:49:19;;;;;;;11.63;3.97;;;;;;;-7.19;53.50;101901.41;5008039;28;105977;-74
2022/03/11 04:51:45;;;;;;;18.13;7.07;;;;;;;-7.21;52.98;101904.03;5005122;28;105972;-76
2022/03/11 04:54:10;;;;;;;12.23;7.70;;;;;;;-7.19;53.54;101893.66;5004215;28;105681;-75
2022/03/11 04:56:37;;;;;;;15.17;8.23;;;;;;;-7.12;54.30;101904.81;5003261;28;106026;-73
2022/03/11 04:59:03;;;;;;;13.90;9.13;;;;;;;-7.05;55.43;101894.38;5004140;28;106318;-78
2022/03/11 05:01:28;;;;;;;18.07;10.40;;;;;;;-6.97;55.24;101899.47;5005336;28;105960;-78
2022/03/11 05:03:54;;;;;;;22.57;9.23;;;;;;;-6.91;54.24;101902.00;5004482;28;106159;-78
2022/03/11 05:06:19;;;;;;;18.13;8.87;;;;;;;-6.86;55.02;101913.19;5004873;28;107808;-77
2022/03/11 05:08:44;;;;;;;18.20;10.37;;;;;;;-6.81;55.26;101910.53;5004957;28;106102;-78
2022/03/11 05:11:10;;;;;;;19.83;9.80;;;;;;;-6.77;54.78;101916.56;5005242;28;105975;-77
2022/03/11 05:13:35;;;;;;;15.23;9.37;;;;;;;-6.73;54.47;101919.09;5004560;28;106077;-78
2022/03/11 05:16:00;;;;;;;18.40;7.63;;;;;;;-6.70;54.47;101915.59;5004356;28;110781;-78
2022/03/11 05:18:26;;;;;;;18.77;9.40;;;;;;;-6.68;54.90;101911.28;5004913;28;105847;-69
2022/03/11 05:20:52;;;;;;;11.63;8.23;;;;;;;-6.67;54.93;101912.97;5005278;28;106039;-74
2022/03/11 05:23:17;;;;;;;19.57;8.90;;;;;;;-6.63;55.46;101918.13;5004465;28;105969;-77
2022/03/11 05:25:43;;;;;;;13.20;8.50;;;;;;;-6.60;55.08;101914.63;5004102;28;109136;-74
2022/03/11 05:28:08;;;;;;;14.73;9.00;;;;;;;-6.57;55.67;101908.56;5004201;28;105891;-76
2022/03/11 05:30:36;;;;;;;14.07;8.77;;;;;;;-6.54;54.44;101917.16;5005324;28;106292;-73
2022/03/11 05:33:02;;;;;;;17.53;8.70;;;;;;;-6.43;55.05;101916.16;5004171;28;106165;-74
2022/03/11 05:35:28;;;;;;;21.47;10.83;;;;;;;-6.38;55.09;101914.34;5003972;28;105949;-75
2022/03/11 05:37:53;;;;;;;14.37;7.10;;;;;;;-6.28;55.76;101923.75;5003188;28;106003;-73
2022/03/11 05:40:18;;;;;;;16.10;8.67;;;;;;;-6.18;55.54;101927.06;5005270;28;106339;-74
2022/03/11 05:42:44;;;;;;;17.57;8.67;;;;;;;-6.07;55.58;101935.56;5004583;28;106130;-76
2022/03/11 05:45:10;;;;;;;15.13;7.83;;;;;;;-5.94;54.98;101923.28;5003924;28;106169;-73
2022/03/11 05:47:35;;;;;;;17.53;9.33;;;;;;;-5.82;54.35;101928.28;5003068;28;106657;-71
2022/03/11 05:50:01;;;;;;;18.00;9.17;;;;;;;-5.67;55.11;101939.31;5004551;28;105952;-73
2022/03/11 05:52:26;;;;;;;21.73;9.53;;;;;;;-5.52;55.24;101939.09;5004252;28;106145;-71
2022/03/11 05:54:51;;;;;;;12.93;7.80;;;;;;;-5.36;55.26;101931.03;5003165;28;105836;-71
2022/03/11 05:57:17;;;;;;;19.50;9.67;;;;;;;-5.21;54.97;101927.34;5004040;28;105761;-70
2022/03/11 05:59:42;;;;;;;37.73;8.87;;;;;;;-5.05;54.13;101927.94;4996722;28;105924;-71
2022/03/11 06:02:08;;;;;;;13.73;7.97;;;;;;;-4.89;53.76;101929.38;4990723;28;106180;-71
2022/03/11 06:04:33;;;;;;;10.97;7.47;;;;;;;-4.72;53.59;101930.78;4988924;28;106121;-76
2022/03/11 06:06:58;;;;;;;17.33;8.70;;;;;;;-4.58;53.98;101926.16;4990068;28;106173;-71
2022/03/11 06:09:24;;;;;;;17.00;8.87;;;;;;;-4.39;53.75;101931.00;4989869;28;105827;-72
2022/03/11 06:11:49;;;;;;;16.57;9.53;;;;;;;-4.21;53.19;101938.47;4990337;28;106171;-72
2022/03/11 06:14:14;;;;;;;15.87;8.97;;;;;;;-4.01;53.30;101939.75;4990230;28;111160;-74
2022/03/11 06:16:40;;;;;;;15.97;9.03;;;;;;;-3.85;53.26;101935.09;4988713;28;106784;-76
2022/03/11 06:19:05;;;;;;;13.57;8.73;;;;;;;-3.72;52.65;101933.03;4991390;28;106044;-76
2022/03/11 06:21:30;;;;;;;17.92;8.57;;;;;;;-3.55;52.67;101943.06;4990656;28;105902;-75
2022/03/11 06:23:57;;;;;;;20.35;8.35;;;;;;;-3.45;51.96;101934.97;4988527;28;107491;-76
2022/03/11 06:26:23;;;;;;;18.25;9.38;;;;;;;-3.27;52.19;101944.13;4990226;28;106485;-74
2022/03/11 06:28:48;;;;;;;13.32;8.82;;;;;;;-3.13;51.86;101930.75;4991228;28;106321;-76
2022/03/11 06:31:13;;;;;;;18.33;7.32;;;;;;;-3.02;51.14;101935.69;4991960;28;106423;-75
2022/03/11 06:33:39;;;;;;;13.32;7.32;;;;;;;-2.90;51.00;101937.09;4989739;28;105945;-75
2022/03/11 06:36:05;;;;;;;15.95;7.18;;;;;;;-2.85;50.25;101937.84;4988123;28;107617;-76
2022/03/11 06:38:30;;;;;;;15.05;7.50;;;;;;;-2.72;50.68;101947.06;4990861;28;106068;-73
2022/03/11 06:40:56;;;;;;;18.75;7.35;;;;;;;-2.67;49.90;101936.47;4990536;28;106230;-79
2022/03/11 06:43:22;;;;;;;11.73;6.63;;;;;;;-2.61;49.87;101944.16;4989854;28;106123;-83
2022/03/11 06:45:47;;;;;;;10.65;7.13;;;;;;;-2.60;49.48;101940.66;4989658;28;107228;-79
2022/03/11 06:48:13;;;;;;;19.60;8.98;;;;;;;-2.46;49.10;101940.25;4991284;28;106055;-83
2022/03/11 06:50:38;;;;;;;16.70;7.93;;;;;;;-2.28;48.55;101951.09;4989835;28;106184;-82
2022/03/11 06:53:03;;;;;;;17.80;8.63;;;;;;;-2.15;48.92;101941.13;4990509;28;107129;-82
2022/03/11 06:55:29;;;;;;;15.23;8.00;;;;;;;-1.96;48.90;101938.81;4990712;28;106305;-81
2022/03/11 06:57:54;;;;;;;20.50;9.18;;;;;;;-1.81;48.03;101940.97;4990497;28;106154;-79
2022/03/11 07:00:20;;;;;;;10.82;7.22;;;;;;;-1.75;47.71;101946.00;4991026;28;105839;-84
2022/03/11 07:02:45;;;;;;;14.32;7.63;;;;;;;-1.74;47.07;101946.84;4990491;28;107898;-85
2022/03/11 07:05:11;;;;;;;17.13;7.97;;;;;;;-1.65;47.15;101948.31;4990273;28;105944;-82
2022/03/11 07:07:37;;;;;;;12.65;8.23;;;;;;;-1.48;46.98;101948.63;4989956;28;106020;-76
2022/03/11 07:10:10;;;;;;;13.98;7.43;;;;;;;-1.28;46.35;101949.78;4988461;28;107358;-84
2022/03/11 07:12:35;;;;;;;11.90;6.60;;;;;;;-1.16;44.98;101938.91;4989192;28;106112;-78
2022/03/11 07:15:02;;;;;;;21.25;7.25;;;;;;;-1.06;45.08;101955.13;4989482;28;107076;-79
2022/03/11 07:17:29;;;;;;;11.65;7.53;;;;;;;-1.04;45.44;101951.56;4989745;28;105908;-80
2022/03/11 07:19:55;;;;;;;14.65;8.65;;;;;;;-0.84;45.25;101947.41;4988877;28;106114;-79
2022/03/11 07:22:20;;;;;;;14.60;8.02;;;;;;;-0.67;44.38;101952.03;4989299;28;106358;-80
2022/03/11 07:24:46;;;;;;;18.05;6.78;;;;;;;-0.44;44.73;101952.97;4989427;28;106345;-84
2022/03/11 07:27:12;;;;;;;14.10;6.22;;;;;;;-0.26;43.49;101954.06;4989967;28;106036;-86
2022/03/11 07:29:38;;;;;;;8.82;5.78;;;;;;;-0.21;42.25;101946.91;4990769;28;106243;-83
2022/03/11 07:32:08;;;;;;;14.80;6.72;;;;;;;-0.27;41.85;101955.00;4988706;28;110072;-81
2022/03/11 07:34:34;;;;;;;12.07;6.00;;;;;;;-0.24;42.34;101939.16;4988910;28;106580;-82
2022/03/11 07:36:59;;;;;;;9.57;4.88;;;;;;;-0.07;41.45;101957.72;4990138;28;106214;-80
2022/03/11 07:39:25;;;;;;;15.07;7.38;;;;;;;0.04;41.34;101966.94;4989660;28;105929;-80
2022/03/11 07:41:50;;;;;;;8.43;5.80;;;;;;;0.20;41.11;101949.69;4988564;28;105989;-81
2022/03/11 07:44:16;;;;;;;11.13;5.78;;;;;;;0.51;40.72;101948.50;4988403;28;105925;-83
2022/03/11 07:46:43;;;;;;;12.88;6.00;;;;;;;0.79;40.22;101939.50;4990168;28;105937;-79
2022/03/11 07:49:08;;;;;;;15.35;7.40;;;;;;;0.81;40.22;101937.66;4988726;28;106167;-79
2022/03/11 07:51:34;;;;;;;15.02;5.78;;;;;;;0.99;39.70;101936.88;4996459;28;106163;-82
2022/03/11 07:53:59;;;;;;;9.93;6.03;;;;;;;1.00;38.68;101943.84;4989218;28;106328;-82
2022/03/11 07:56:25;;;;;;;15.70;8.48;;;;;;;1.16;39.34;101956.31;4989824;28;106038;-89
2022/03/11 07:58:50;;;;;;;9.90;6.15;;;;;;;1.39;38.53;101939.53;4989716;28;105846;-81
2022/03/11 08:01:16;;;;;;;11.55;6.15;;;;;;;1.51;37.75;101946.88;4989675;28;106070;-79
2022/03/11 08:03:42;;;;;;;11.50;5.53;;;;;;;1.46;36.96;101938.38;4989792;28;106621;-84
2022/03/11 08:06:08;;;;;;;14.18;7.25;;;;;;;1.56;37.03;101938.81;4990095;28;106953;-85
2022/03/11 08:08:35;;;;;;;13.82;5.57;;;;;;;1.79;35.93;101950.03;4989368;28;106122;-84
2022/03/11 08:11:00;;;;;;;14.57;7.63;;;;;;;1.82;36.23;101932.38;4988791;28;106014;-78
2022/03/11 08:13:26;;;;;;;14.23;7.25;;;;;;;1.97;35.61;101933.44;4988444;28;106068;-82
2022/03/11 08:15:51;;;;;;;15.43;6.20;;;;;;;2.06;34.32;101949.69;4989843;28;106008;-82
2022/03/11 08:18:17;;;;;;;14.32;6.65;;;;;;;2.06;34.66;101939.19;4989123;28;106380;-84
2022/03/11 08:20:42;;;;;;;11.20;5.07;;;;;;;2.29;33.71;101949.47;4991735;28;106790;-88
2022/03/11 08:23:08;;;;;;;13.38;6.55;;;;;;;2.21;32.90;101946.34;4989350;28;106059;-80
2022/03/11 08:25:34;;;;;;;8.13;4.07;;;;;;;2.26;33.09;101938.25;4989307;28;106128;-79
2022/03/11 08:28:00;;;;;;;15.13;7.47;;;;;;;2.61;33.41;101944.44;4988485;28;106222;-81
2022/03/11 08:30:26;;;;;;;21.48;7.25;;;;;;;3.00;32.61;101930.19;4970848;28;108804;-83
2022/03/11 08:32:52;;;;;;;21.13;7.38;;;;;;;3.63;32.99;101930.47;4969387;28;106724;-86
2022/03/11 08:35:19;;;;;;;19.75;7.68;;;;;;;4.49;31.75;101928.34;4971096;28;105938;-86
2022/03/11 08:37:45;;;;;;;10.70;4.75;;;;;;;6.67;29.44;101922.06;4967337;28;106670;-81
2022/03/11 08:40:12;;;;;;;12.05;5.63;;;;;;;9.00;26.56;101918.78;4967688;28;106144;-80
2022/03/11 08:42:38;;;;;;;16.13;5.85;;;;;;;10.83;24.32;101921.91;4968135;28;106011;-81
2022/03/11 08:45:06;;;;;;;8.50;5.28;;;;;;;12.34;21.05;101925.78;4968416;28;105720;-80
2022/03/11 08:47:31;;;;;;;17.35;7.28;;;;;;;13.84;21.18;101923.34;4967344;28;106150;-80
2022/03/11 08:49:57;;;;;;;14.80;7.45;;;;;;;15.15;20.29;101912.16;4967721;28;106102;-78
2022/03/11 08:52:25;;;;;;;13.77;7.05;;;;;;;16.48;18.87;101917.00;4967701;28;106066;-85
2022/03/11 08:54:51;;;;;;;15.82;8.13;;;;;;;17.32;18.04;101915.94;4969501;28;106354;-82
2022/03/11 08:57:16;;;;;;;12.15;6.57;;;;;;;17.84;17.29;101910.03;4968589;28;106841;-78
2022/03/11 08:59:41;;;;;;;16.63;6.90;;;;;;;17.71;16.58;101898.97;4967280;28;106771;-77
2022/03/11 09:02:08;;;;;;;15.25;6.63;;;;;;;18.58;16.43;101903.31;4968163;28;106090;-84
2022/03/11 09:04:34;;;;;;;11.18;7.25;;;;;;;19.62;16.05;101902.59;4969206;28;106343;-79
2022/03/11 09:07:00;;;;;;;22.63;6.50;;;;;;;19.76;15.02;101909.00;4969164;28;106345;-82
2022/03/11 09:09:25;;;;;;;13.15;7.25;;;;;;;20.53;14.92;101907.56;4967400;28;108961;-78
2022/03/11 09:11:50;;;;;;;13.50;7.07;;;;;;;21.46;14.76;101901.97;4965605;28;115127;-81
2022/03/11 09:14:18;;;;;;;13.60;7.53;;;;;;;22.35;14.13;101906.66;4968968;28;105935;-86
2022/03/11 09:16:43;;;;;;;12.50;7.53;;;;;;;22.77;14.09;101891.88;4968811;28;106390;-81
2022/03/11 09:19:09;;;;;;;12.90;6.70;;;;;;;23.42;13.31;101887.56;4968364;28;106785;-83
2022/03/11 09:21:34;;;;;;;13.88;7.50;;;;;;;24.30;12.85;101886.91;4968007;28;106167;-83
2022/03/11 09:24:00;;;;;;;11.00;5.85;;;;;;;23.68;12.07;101885.78;4969461;28;105971;-86
2022/03/11 09:26:25;;;;;;;13.07;7.10;;;;;;;23.96;11.78;101880.00;4968624;28;106145;-82
2022/03/11 09:28:51;;;;;;;15.68;7.35;;;;;;;24.25;11.46;101891.31;4967756;28;106275;-82
2022/03/11 09:31:16;;;;;;;11.55;6.90;;;;;;;24.98;11.12;101887.19;4967732;28;106175;-80
2022/03/11 09:33:42;;;;;;;14.85;7.80;;;;;;;25.02;11.03;101888.41;4969526;28;106060;-88
2022/03/11 09:36:08;;;;;;;16.95;7.28;;;;;;;25.41;10.74;101890.91;4974995;28;105951;-92
2022/03/11 09:38:36;;;;;;;14.35;6.10;;;;;;;25.85;10.15;101908.81;4973238;28;105898;-83
2022/03/11 09:41:02;;;;;;;13.82;7.35;;;;;;;25.13;10.36;101895.81;4971753;28;106142;-79
2022/03/11 09:43:27;;;;;;;14.32;7.75;;;;;;;25.45;10.16;101895.72;4972065;28;106345;-83
2022/03/11 09:45:53;;;;;;;15.15;7.05;;;;;;;25.81;10.11;101887.69;4971417;28;106647;-83
2022/03/11 09:48:20;;;;;;;12.70;6.10;;;;;;;25.67;8.96;101901.50;4970177;28;106204;-84
2022/03/11 09:50:45;;;;;;;14.38;6.68;;;;;;;25.76;9.03;101909.38;4971633;28;106013;-89
2022/03/11 09:53:12;;;;;;;13.00;7.45;;;;;;;26.50;8.84;101903.69;4978103;28;105952;-89
2022/03/11 09:55:42;;;;;;;11.77;7.43;;;;;;;27.22;8.84;101894.44;4975373;28;105849;-82
2022/03/11 09:58:08;;;;;;;13.48;7.00;;;;;;;27.58;8.40;101894.38;4970643;28;106419;-79
2022/03/11 10:00:33;;;;;;;10.70;6.65;;;;;;;27.14;8.43;101903.81;4970383;28;106580;-81
2022/03/11 10:02:59;;;;;;;18.25;7.18;;;;;;;26.91;8.43;101892.94;4971369;28;105964;-83
2022/03/11 10:05:24;;;;;;;12.38;6.32;;;;;;;26.83;8.27;101914.09;4970149;28;106180;-82
2022/03/11 10:08:04;;;;;;;12.15;6.40;;;;;;;25.78;7.49;101912.69;4970261;28;106048;-82
2022/03/11 10:10:30;;;;;;;11.63;6.03;;;;;;;24.40;7.84;101891.00;4970452;28;105740;-81
2022/03/11 10:12:56;;;;;;;13.25;8.20;;;;;;;23.97;8.10;101893.38;4971129;28;105926;-83
2022/03/11 10:15:27;;;;;;;13.38;7.40;;;;;;;24.11;8.13;101901.47;4969950;28;106941;-82
2022/03/11 10:17:53;;;;;;;12.65;7.40;;;;;;;24.81;8.11;101892.38;4969597;28;105945;-81
2022/03/11 10:20:19;;;;;;;11.77;7.68;;;;;;;25.90;7.95;101883.53;4969661;28;105794;-80
2022/03/11 10:22:47;;;;;;;15.15;7.13;;;;;;;26.49;7.64;101893.81;4970066;28;105828;-77
2022/03/11 10:25:16;;;;;;;16.77;7.97;;;;;;;26.49;7.74;101891.94;4971057;28;106146;-86
2022/03/11 10:28:01;;;;;;;10.15;6.38;;;;;;;27.19;7.44;101886.72;4977175;28;106028;-82
2022/03/11 10:30:28;;;;;;;11.75;6.70;;;;;;;28.07;7.28;101880.25;4988128;28;106596;-86
2022/03/11 10:32:55;;;;;;;21.48;10.82;;;;;;;28.58;6.87;101894.78;4991823;28;105825;-88
2022/03/11 10:35:47;;;;;;;12.13;7.60;;;;;;;28.49;6.46;101893.56;4989796;28;106417;-83
2022/03/11 10:38:15;;;;;;;23.73;8.07;;;;;;;28.75;6.82;101883.03;4988247;28;106004;-80
2022/03/11 10:40:51;;;;;;;14.40;7.78;;;;;;;29.02;6.76;101889.44;4988655;28;106176;-85
2022/03/11 10:43:21;;;;;;;10.20;6.22;;;;;;;29.07;6.24;101874.13;4988628;28;105846;-81
2022/03/11 10:45:55;;;;;;;11.98;7.05;;;;;;;29.29;6.19;101894.19;4989782;28;106074;-82
2022/03/11 10:48:42;;;;;;;11.25;6.05;;;;;;;29.26;6.38;101886.47;4988836;28;106582;-82
2022/03/11 10:51:25;;;;;;;14.10;7.57;;;;;;;29.48;5.95;101880.97;4987862;28;107370;-87
2022/03/11 10:53:55;;;;;;;17.35;7.28;;;;;;;28.76;5.92;101882.78;4989332;28;106522;-86
2022/03/11 10:56:35;;;;;;;;;;;;;;;28.31;6.29;101873.53;4989365;28;105927;-80
2022/03/11 10:59:28;;;;;;;14.03;7.60;;;;;;;28.63;6.09;101880.34;4989749;28;106229;-79
2022/03/11 11:01:57;;;;;;;10.48;6.50;;;;;;;28.01;5.85;101869.19;4987787;28;106335;-79
2022/03/11 11:04:24;;;;;;;13.63;6.80;;;;;;;28.03;6.18;101867.06;4991976;28;105920;-92
2022/03/11 11:06:50;;;;;;;19.13;8.43;;;;;;;28.10;5.68;101875.09;4958635;28;106296;-88
2022/03/11 11:09:22;;;;;;;15.75;7.15;;;;;;;27.89;6.26;101853.88;4989211;28;109181;-80
2022/03/11 11:11:49;;;;;;;11.30;6.03;;;;;;;28.08;5.83;101841.66;4989826;28;106009;-84
2022/03/11 11:14:15;;;;;;;11.10;6.63;;;;;;;28.62;6.03;101856.75;4989757;28;106036;-86
2022/03/11 11:16:42;;;;;;;9.95;6.47;;;;;;;28.70;5.65;101859.94;4989876;28;106126;-75
2022/03/11 11:19:14;;;;;;;14.65;7.05;;;;;;;29.11;5.74;101856.91;4989005;28;106023;-81
2022/03/11 11:21:42;;;;;;;14.07;7.10;;;;;;;30.39;5.53;101845.59;4988882;28;105934;-79
2022/03/11 11:24:16;;;;;;;13.93;7.28;;;;;;;31.07;5.00;101850.44;4989811;28;106492;-80
2022/03/11 11:26:55;;;;;;;15.77;7.38;;;;;;;30.05;5.11;101848.63;4986239;28;106087;-80
2022/03/11 11:29:23;;;;;;;11.82;6.18;;;;;;;30.01;4.93;101834.56;4988646;28;106529;-76
2022/03/11 11:31:49;;;;;;;15.82;7.22;;;;;;;30.26;5.18;101849.59;4989220;28;106226;-89
2022/03/11 11:34:33;;;;;;;17.17;7.22;;;;;;;30.43;4.97;101845.88;4988114;28;106082;-84
2022/03/11 11:37:00;;;;;;;11.48;6.50;;;;;;;30.55;4.73;101821.78;4989373;28;105841;-80
2022/03/11 11:39:34;;;;;;;9.50;6.00;;;;;;;30.17;4.82;101826.47;4988729;28;106138;-86
2022/03/11 11:42:08;;;;;;;9.93;5.45;;;;;;;30.44;5.07;101829.19;4989831;28;106411;-86
2022/03/11 11:44:35;;;;;;;8.82;5.68;;;;;;;30.33;5.03;101827.41;4988240;28;106119;-86
2022/03/11 11:47:09;;;;;;;10.35;5.95;;;;;;;30.12;4.87;101829.19;4988875;28;106015;-83
2022/03/11 11:49:43;;;;;;;11.23;5.40;;;;;;;31.12;4.59;101813.84;4986822;28;106757;-82
2022/03/11 11:52:11;;;;;;;7.78;4.85;;;;;;;31.75;4.72;101799.16;4988677;28;105986;-83
2022/03/11 11:54:39;;;;;;;12.50;5.22;;;;;;;31.96;4.55;101819.25;4989994;28;106138;-80
2022/03/11 11:57:06;;;;;;;9.48;4.75;;;;;;;31.18;4.53;101834.78;4988711;28;106260;-86
2022/03/11 11:59:35;;;;;;;11.00;5.28;;;;;;;31.22;4.47;101802.88;4989161;28;109592;-86
2022/03/11 12:02:04;;;;;;;10.48;5.03;;;;;;;31.19;4.52;101808.91;4988561;28;106445;-81
2022/03/11 12:04:33;;;;;;;11.57;4.97;;;;;;;30.79;4.66;101807.63;4989842;28;106431;-83
2022/03/11 12:07:10;;;;;;;6.50;3.60;;;;;;;29.84;4.59;101801.72;4989226;28;105879;-81
2022/03/11 12:09:50;;;;;;;9.30;5.15;;;;;;;29.62;4.51;101793.56;4986623;28;108907;-82
2022/03/11 12:12:18;;;;;;;10.50;4.65;;;;;;;30.20;4.57;101793.78;4988146;28;106082;-77
2022/03/11 12:14:59;;;;;;;7.00;4.72;;;;;;;30.88;4.37;101792.28;4988883;28;105989;-80
2022/03/11 12:18:00;;;;;;;10.80;5.15;;;;;;;31.63;4.61;101786.47;4988472;28;106227;-81
2022/03/11 12:20:30;;;;;;;10.35;4.85;;;;;;;32.66;4.09;101774.50;4990173;28;107584;-79
2022/03/11 12:23:15;;;;;;;9.73;5.05;;;;;;;32.22;4.14;101770.50;4987891;28;106354;-82
2022/03/11 12:25:54;;;;;;;8.98;4.53;;;;;;;32.31;4.15;101777.06;4988726;28;106269;-80
2022/03/11 12:28:41;;;;;;;11.55;3.70;;;;;;;32.17;4.12;101782.34;4987906;28;106230;-79
2022/03/11 12:31:21;;;;;;;6.55;4.07;;;;;;;31.07;3.99;101776.16;4989956;28;106665;-78
2022/03/11 12:33:48;;;;;;;7.22;4.45;;;;;;;30.28;4.40;101784.22;4987589;28;106446;-80
2022/03/11 12:36:24;;;;;;;15.45;4.80;;;;;;;29.31;4.72;101776.78;4987517;28;106344;-79
2022/03/11 12:38:52;;;;;;;5.65;3.28;;;;;;;29.99;4.18;101759.84;4988397;28;106403;-83
2022/03/11 12:41:27;;;;;;;7.95;4.22;;;;;;;30.98;4.05;101752.97;4988370;28;106134;-80
2022/03/11 12:43:57;;;;;;;11.60;4.28;;;;;;;30.44;4.28;101776.94;4987365;28;106022;-81
2022/03/11 12:46:22;;;;;;;8.68;3.65;;;;;;;30.34;4.41;101758.41;4988125;28;105936;-77
2022/03/11 12:48:47;;;;;;;10.07;4.38;;;;;;;30.36;4.50;101748.00;4987149;28;106183;-81
2022/03/11 12:51:18;;;;;;;10.13;4.65;;;;;;;31.56;4.06;101750.06;4986960;28;105856;-78
2022/03/11 12:53:47;;;;;;;11.52;4.47;;;;;;;31.33;3.96;101752.25;4987152;28;106349;-79
2022/03/11 12:57:38;;;;;;;8.57;4.43;;;;;;;31.55;3.86;101749.25;4987516;28;105896;-77
